createdAt,value
2018-07-25T00:04:01.304Z,6.60
2018-07-25T00:08:55.878Z,7.80
2018-07-25T00:13:49.208Z,7.50
2018-07-25T00:18:39.420Z,9.90
2018-07-25T00:23:35.026Z,7.10
2018-07-25T00:28:28.569Z,9.00
2018-07-25T00:33:21.887Z,10.40
2018-07-25T00:38:26.426Z,8.40
2018-07-25T00:43:36.203Z,8.80
2018-07-25T00:48:25.342Z,8.50
2018-07-25T00:53:20.150Z,8.30
2018-07-25T00:58:15.337Z,9.30
2018-07-25T01:03:15.334Z,9.70
2018-07-25T01:08:11.993Z,10.40
2018-07-25T01:13:17.512Z,10.40
2018-07-25T01:18:07.885Z,8.80
2018-07-25T01:23:10.950Z,9.80
2018-07-25T01:28:02.372Z,9.40
2018-07-25T01:33:00.834Z,14.30
2018-07-25T01:37:55.642Z,10.90
2018-07-25T01:43:11.733Z,10.70
2018-07-25T01:48:14.939Z,10.80
2018-07-25T01:53:37.810Z,13.70
2018-07-25T01:58:27.554Z,18.00
2018-07-25T02:03:47.104Z,10.80
2018-07-25T02:08:42.240Z,9.90
2018-07-25T02:13:36.078Z,10.60
2018-07-25T02:18:29.522Z,9.20
2018-07-25T02:23:44.277Z,11.50
2018-07-25T02:29:08.642Z,11.40
2018-07-25T02:33:59.791Z,11.20
2018-07-25T02:38:56.525Z,9.40
2018-07-25T02:43:51.485Z,10.40
2018-07-25T02:48:47.256Z,12.30
2018-07-25T02:53:48.485Z,9.70
2018-07-25T02:58:59.715Z,11.20
2018-07-25T03:04:00.130Z,9.70
2018-07-25T03:09:00.719Z,10.10
2018-07-25T03:14:15.162Z,10.80
2018-07-25T03:19:08.089Z,10.20
2018-07-25T03:30:09.299Z,10.90
2018-07-25T03:31:06.834Z,8.60
2018-07-25T03:36:27.703Z,11.60
2018-07-25T03:41:46.063Z,10.20
2018-07-25T03:47:09.018Z,16.00
2018-07-25T03:58:37.861Z,10.40
2018-07-25T04:03:33.534Z,8.70
2018-07-25T04:09:01.413Z,9.30
2018-07-25T04:25:36.370Z,9.40
2018-07-25T04:30:36.838Z,8.50
2018-07-25T04:35:45.536Z,11.40
2018-07-25T04:40:41.060Z,8.20
2018-07-25T04:45:43.349Z,9.50
2018-07-25T04:56:00.213Z,10.50
2018-07-25T05:01:23.565Z,9.10
2018-07-25T05:06:24.458Z,9.30
2018-07-25T05:16:35.532Z,10.50
2018-07-25T05:21:37.177Z,10.70
2018-07-25T05:26:45.018Z,9.10
2018-07-25T05:31:45.121Z,11.20
2018-07-25T05:42:11.162Z,13.20
2018-07-25T05:47:12.688Z,11.20
2018-07-25T05:52:25.133Z,14.00
2018-07-25T05:57:33.130Z,14.10
2018-07-25T06:02:43.126Z,13.10
2018-07-25T06:07:44.557Z,11.10
2018-07-25T06:13:03.285Z,11.50
2018-07-25T06:17:58.201Z,11.00
2018-07-25T06:22:54.317Z,12.10
2018-07-25T06:27:47.476Z,11.00
2018-07-25T06:32:56.302Z,13.00
2018-07-25T06:38:00.293Z,11.60
2018-07-25T06:43:02.428Z,11.20
2018-07-25T06:48:01.193Z,13.50
2018-07-25T06:58:30.192Z,16.50
2018-07-25T07:03:25.794Z,16.40
2018-07-25T07:08:24.801Z,11.70
2018-07-25T07:13:23.616Z,14.90
2018-07-25T07:18:19.658Z,15.40
2018-07-25T07:23:12.528Z,12.10
2018-07-25T07:28:14.406Z,11.60
2018-07-25T07:33:06.526Z,30.60
2018-07-25T07:38:35.805Z,22.50
2018-07-25T07:43:38.330Z,17.20
2018-07-25T07:48:26.960Z,13.30
2018-07-25T07:53:28.222Z,11.00
2018-07-25T07:58:26.337Z,10.90
2018-07-25T08:03:45.431Z,12.10
2018-07-25T08:08:40.750Z,14.00
2018-07-25T08:13:32.262Z,12.70
2018-07-25T08:18:25.328Z,15.20
2018-07-25T08:23:18.945Z,9.80
2018-07-25T08:28:13.317Z,9.70
2018-07-25T08:33:42.103Z,13.60
2018-07-25T08:38:56.615Z,11.60
2018-07-25T08:49:04.073Z,10.80
2018-07-25T08:54:26.407Z,12.10
2018-07-25T09:04:54.961Z,12.10
2018-07-25T09:09:56.034Z,13.60
2018-07-25T09:14:56.351Z,10.70
2018-07-25T09:19:59.770Z,13.70
2018-07-25T09:24:53.472Z,12.80
2018-07-25T09:29:48.049Z,7.00
2018-07-25T09:34:43.562Z,10.10
2018-07-25T09:39:50.175Z,8.60
2018-07-25T09:50:42.759Z,6.90
2018-07-25T09:55:47.390Z,6.30
2018-07-25T10:00:47.410Z,6.50
2018-07-25T10:05:58.612Z,6.70
2018-07-25T10:10:57.013Z,6.60
2018-07-25T10:16:11.413Z,6.10
2018-07-25T10:21:05.631Z,5.50
2018-07-25T10:26:01.209Z,10.10
2018-07-25T10:31:10.130Z,8.90
2018-07-25T10:36:15.907Z,7.10
2018-07-25T10:41:14.809Z,8.40
2018-07-25T10:46:10.732Z,9.00
2018-07-25T10:51:04.036Z,5.70
2018-07-25T10:56:01.193Z,7.80
2018-07-25T11:01:06.590Z,6.40
2018-07-25T11:06:03.355Z,7.30
2018-07-25T11:10:59.581Z,6.70
2018-07-25T11:15:54.100Z,7.20
2018-07-25T11:20:50.390Z,6.80
2018-07-25T11:25:46.886Z,8.60
2018-07-25T11:30:49.939Z,7.80
2018-07-25T11:35:53.450Z,8.60
2018-07-25T11:40:54.792Z,5.60
2018-07-25T11:46:26.115Z,6.70
2018-07-25T11:51:23.242Z,7.50
2018-07-25T11:56:19.403Z,6.60
2018-07-25T12:21:46.185Z,7.10
2018-07-25T12:27:54.605Z,6.80
2018-07-25T12:35:11.554Z,6.50
2018-07-25T12:40:18.110Z,6.90
2018-07-25T12:51:52.606Z,6.20
2018-07-25T12:56:53.269Z,5.90
2018-07-25T13:02:06.758Z,6.40
2018-07-25T13:07:05.313Z,6.20
2018-07-25T13:12:05.676Z,6.00
2018-07-25T13:17:06.802Z,6.40
2018-07-25T13:22:04.980Z,5.80
2018-07-25T13:27:07.261Z,5.50
2018-07-25T14:02:27.080Z,5.50
2018-07-25T14:07:26.374Z,6.00
2018-07-25T14:13:47.594Z,5.60
2018-07-25T14:24:50.105Z,5.90
2018-07-25T14:45:34.949Z,5.90
2018-07-25T16:33:51.201Z,9.10
2018-07-25T16:38:44.350Z,8.90
2018-07-25T16:43:35.497Z,9.00
2018-07-25T16:48:28.478Z,9.10
2018-07-25T16:53:20.833Z,9.50
2018-07-25T16:58:13.392Z,7.70
2018-07-25T17:03:06.951Z,13.20
2018-07-25T17:08:00.727Z,9.90
2018-07-25T17:12:55.964Z,10.90
2018-07-25T17:17:49.780Z,10.00
2018-07-25T17:22:43.494Z,10.70
2018-07-25T17:27:36.893Z,8.30
2018-07-25T17:32:33.695Z,7.20
2018-07-25T17:37:27.801Z,9.10
2018-07-25T17:42:21.728Z,8.30
2018-07-25T17:47:16.357Z,6.90
2018-07-25T17:52:09.860Z,11.30
2018-07-25T17:57:03.590Z,5.40
2018-07-25T18:01:57.289Z,5.40
2018-07-25T18:06:51.142Z,9.10
2018-07-25T18:11:44.944Z,5.80
2018-07-25T18:16:39.601Z,7.00
2018-07-25T18:21:33.115Z,5.70
2018-07-25T18:26:26.713Z,5.00
2018-07-25T18:31:20.213Z,5.90
2018-07-25T18:36:13.825Z,5.30
2018-07-25T18:41:14.866Z,8.30
2018-07-25T18:46:07.704Z,6.50
2018-07-25T18:51:01.356Z,6.10
2018-07-25T18:55:54.845Z,6.60
2018-07-25T19:00:48.460Z,4.20
2018-07-25T19:05:41.852Z,4.30
2018-07-25T19:10:35.308Z,4.60
2018-07-25T19:15:28.622Z,5.10
2018-07-25T19:20:22.421Z,6.90
2018-07-25T19:25:15.656Z,6.90
2018-07-25T19:30:08.941Z,5.90
2018-07-25T19:35:02.431Z,5.90
2018-07-25T19:39:56.158Z,6.60
2018-07-25T19:44:49.464Z,5.40
2018-07-25T19:49:42.940Z,7.10
2018-07-25T19:54:36.262Z,4.90
2018-07-25T19:59:33.305Z,5.20
2018-07-25T20:04:26.113Z,6.00
2018-07-25T20:09:19.292Z,4.50
2018-07-25T20:14:12.758Z,5.30
2018-07-25T20:19:06.286Z,8.50
2018-07-25T20:23:59.852Z,5.70
2018-07-25T20:28:53.686Z,5.00
2018-07-25T20:33:47.117Z,5.40
2018-07-25T20:38:40.409Z,5.80
2018-07-25T20:43:33.908Z,7.50
2018-07-25T20:48:27.374Z,5.30
2018-07-25T20:53:21.105Z,4.90
2018-07-25T20:58:14.517Z,4.70
2018-07-25T21:03:07.783Z,8.10
2018-07-25T21:08:03.277Z,9.70
2018-07-25T21:12:57.587Z,7.60
2018-07-25T21:17:50.820Z,7.60
2018-07-25T21:22:43.985Z,6.30
2018-07-25T21:27:37.589Z,4.80
2018-07-25T21:32:30.869Z,5.10
2018-07-25T21:37:24.433Z,5.20
2018-07-25T21:42:19.920Z,5.60
2018-07-25T21:47:12.741Z,4.50
2018-07-25T21:52:06.120Z,5.90
2018-07-25T21:56:59.671Z,5.60
2018-07-25T22:01:53.957Z,5.70
2018-07-25T22:06:47.444Z,5.10
2018-07-25T22:11:40.822Z,7.10
2018-07-25T22:16:34.061Z,6.10
2018-07-25T22:21:28.449Z,5.40
2018-07-25T22:26:21.781Z,4.60
2018-07-25T22:31:15.357Z,4.90
2018-07-25T22:36:08.622Z,6.80
2018-07-25T22:41:03.438Z,5.20
2018-07-25T22:45:56.636Z,5.20
2018-07-25T22:50:54.060Z,6.20
2018-07-25T22:55:46.320Z,4.70
2018-07-25T23:00:39.557Z,5.50
2018-07-25T23:05:33.158Z,5.30
2018-07-25T23:10:27.670Z,5.80
2018-07-25T23:15:20.842Z,5.40
2018-07-25T23:20:14.462Z,5.90
2018-07-25T23:25:07.969Z,5.30
2018-07-25T23:30:01.434Z,10.10
2018-07-25T23:34:54.788Z,5.20
2018-07-25T23:39:49.049Z,6.00
2018-07-25T23:44:42.137Z,7.20
2018-07-25T23:49:35.640Z,6.00
2018-07-25T23:54:31.098Z,5.90
2018-07-25T23:59:24.072Z,5.10
